• Join FlightAware (Why Join?)
  • Login
  • US Flag 
09:17AM EDT


 

Airport Tracker/Info


-or-


 

Live Flight TrackerFlight Track Log ✈ SKW4621 ✈ 25-Apr-2013 ✈ KMSP - KFAR

Flight Track Log - Related Links

Times and Time Zones

All times are in EDT time to prevent confusion due to time zone crossing. See the SKW4621 flight status page for this flight to view local times or setup timezone preferences in your user account.

Time Position Orientation Groundspeed Altitude Reporting Facility
EDT Latitude Longitude Course Direction KTS MPH feet Rate Location/Type
03:23PM 44.9167 -93.2500 299° West 168 193 2,100  Level Minneapolis TRACON
03:24PM 44.9422 -93.2694 332° Northwest 184 212 3,000 2,100 Climbing Minneapolis Center
03:25PM 45.0000 -93.3269 325° Northwest 254 292 5,800 2,760 Climbing Minneapolis Center
03:26PM 45.0417 -93.4044 307° West 248 285 8,800 2,700 Climbing Minneapolis Center
03:27PM 45.2298 -93.6059 295° West  Level FlightAware Approximate
03:27PM 45.0861 -93.4847 308° West 261 300 11,400  Level Minneapolis Center
03:28PM 45.2718 -93.7294 300° West  Level FlightAware Approximate
03:28PM 45.1442 -93.5867 309° West 281 323 14,100  Level Minneapolis Center
03:29PM 45.3218 -93.8465 299° West  Level FlightAware Approximate
03:29PM 45.1953 -93.6764 309° West 293 337 15,900  Level Minneapolis Center
03:30PM 45.2475 -93.7708 308° West 306 352 17,700 1,500 Climbing Minneapolis Center
03:31PM 45.3000 -93.8647 309° West 303 349 19,000 1,320 Climbing Minneapolis Center
03:32PM 45.3539 -93.9619 308° West 313 360 20,500 1,380 Climbing Minneapolis Center
03:33PM 45.4153 -94.0544 313° West 323 372 21,900 1,260 Climbing Minneapolis Center
03:34PM 45.5042 -94.1489 323° Northwest 335 386 23,200 960 Climbing Minneapolis Center
03:36PM 45.5786 -94.2303 323° Northwest 338 389 24,000 360 Climbing Minneapolis Center
03:37PM 45.6572 -94.3175 322° Northwest 355 409 24,000  Level Minneapolis Center
03:38PM 45.7403 -94.4092 322° Northwest 373 429 24,000  Level Minneapolis Center
03:39PM 45.8067 -94.5181 311° West 373 429 24,000  Level Minneapolis Center
03:40PM 45.8639 -94.6328 306° West 362 417 24,000  Level Minneapolis Center
03:41PM 45.9331 -94.7714 306° West 358 412 24,000  Level Minneapolis Center
03:42PM 45.9897 -94.8861 305° West 356 410 24,000  Level Minneapolis Center
03:43PM 46.0481 -95.0019 306° West 358 412 24,000  Level Minneapolis Center
03:44PM 46.1142 -95.1356 306° West 360 414 24,000  Level Minneapolis Center
03:46PM 46.2339 -95.3800 305° West 364 419 24,000  Level Minneapolis Center
03:47PM 46.2889 -95.4939 305° West 367 422 24,000  Level Minneapolis Center
03:48PM 46.3469 -95.6122 305° West 364 419 24,000  Level Minneapolis Center
03:49PM 46.4053 -95.7319 305° West 365 420 24,000 -120 Level Minneapolis Center
03:50PM 46.4694 -95.8650 305° West 370 426 23,800 -1,380 Descending Minneapolis Center
03:51PM 46.5303 -95.9925 305° West 382 440 21,200 -3,000 Descending Minneapolis Center
03:52PM 46.5972 -96.1311 305° West 373 429 17,600 -3,360 Descending Minneapolis Center
03:53PM 46.6550 -96.2531 305° West 353 406 14,300 -3,060 Descending Minneapolis Center
03:54PM 46.7325 -96.3411 322° Northwest 339 390 11,300 -2,040 Descending Minneapolis Center
03:55PM 46.8022 -96.4086 326° Northwest 289 333 10,100 -1,380 Descending Minneapolis Center
03:56PM 46.8642 -96.4658 328° Northwest 255 293 8,500 -1,500 Descending Minneapolis Center
03:57PM 46.9203 -96.5231 325° Northwest 255 293 7,000 -1,620 Descending Minneapolis Center
03:58PM 46.9786 -96.5844 324° Northwest 249 287 5,200 -1,500 Descending Minneapolis Center
03:59PM 47.0050 -96.6664 295° West 223 257 4,000 -1,080 Descending Minneapolis Center
04:00PM 47.0097 -96.7483 275° West 192 221 3,000 -780 Descending Minneapolis Center
04:01PM 47.0025 -96.8100 260° West 144 166 2,400 -600 Descending Minneapolis Center